sensor_id;sensor_type;location;lat;lon;timestamp;P1;durP1;ratioP1;P2;durP2;ratioP2
52718;SDS011;38616;42.140;24.760;2023-01-10T00:00:49;89.88;;;31.92;;
52718;SDS011;38616;42.140;24.760;2023-01-10T00:03:15;74.18;;;30.50;;
52718;SDS011;38616;42.140;24.760;2023-01-10T00:05:41;77.65;;;31.27;;
52718;SDS011;38616;42.140;24.760;2023-01-10T00:08:07;79.75;;;32.03;;
52718;SDS011;38616;42.140;24.760;2023-01-10T00:10:33;81.57;;;32.05;;
52718;SDS011;38616;42.140;24.760;2023-01-10T00:12:59;79.03;;;31.27;;
52718;SDS011;38616;42.140;24.760;2023-01-10T00:15:43;77.85;;;33.25;;
52718;SDS011;38616;42.140;24.760;2023-01-10T00:18:09;81.25;;;32.45;;
52718;SDS011;38616;42.140;24.760;2023-01-10T00:20:34;76.00;;;31.95;;
52718;SDS011;38616;42.140;24.760;2023-01-10T00:23:00;74.60;;;30.90;;
52718;SDS011;38616;42.140;24.760;2023-01-10T00:25:27;83.05;;;34.25;;
52718;SDS011;38616;42.140;24.760;2023-01-10T00:27:53;86.53;;;32.28;;
52718;SDS011;38616;42.140;24.760;2023-01-10T00:30:38;76.82;;;31.98;;
52718;SDS011;38616;42.140;24.760;2023-01-10T00:33:04;74.43;;;31.20;;
52718;SDS011;38616;42.140;24.760;2023-01-10T00:37:58;77.47;;;29.55;;
52718;SDS011;38616;42.140;24.760;2023-01-10T00:40:29;80.28;;;30.40;;
52718;SDS011;38616;42.140;24.760;2023-01-10T00:42:58;82.95;;;31.92;;
52718;SDS011;38616;42.140;24.760;2023-01-10T00:45:46;82.00;;;30.90;;
52718;SDS011;38616;42.140;24.760;2023-01-10T00:48:12;74.18;;;31.77;;
52718;SDS011;38616;42.140;24.760;2023-01-10T00:50:38;80.55;;;30.55;;
52718;SDS011;38616;42.140;24.760;2023-01-10T00:53:03;76.32;;;31.30;;
52718;SDS011;38616;42.140;24.760;2023-01-10T00:55:29;76.32;;;30.23;;
52718;SDS011;38616;42.140;24.760;2023-01-10T00:57:54;85.25;;;31.10;;
52718;SDS011;38616;42.140;24.760;2023-01-10T01:00:20;78.72;;;31.50;;
52718;SDS011;38616;42.140;24.760;2023-01-10T01:02:45;75.63;;;30.30;;
52718;SDS011;38616;42.140;24.760;2023-01-10T01:05:12;77.93;;;30.50;;
52718;SDS011;38616;42.140;24.760;2023-01-10T01:07:37;83.38;;;31.50;;
52718;SDS011;38616;42.140;24.760;2023-01-10T01:10:03;73.13;;;32.10;;
52718;SDS011;38616;42.140;24.760;2023-01-10T01:12:47;75.35;;;31.70;;
52718;SDS011;38616;42.140;24.760;2023-01-10T01:15:12;74.72;;;30.92;;
52718;SDS011;38616;42.140;24.760;2023-01-10T01:17:38;82.00;;;31.23;;
52718;SDS011;38616;42.140;24.760;2023-01-10T01:20:03;73.63;;;29.83;;
52718;SDS011;38616;42.140;24.760;2023-01-10T01:22:29;78.07;;;31.80;;
52718;SDS011;38616;42.140;24.760;2023-01-10T01:24:55;75.60;;;29.95;;
52718;SDS011;38616;42.140;24.760;2023-01-10T01:27:20;76.45;;;30.42;;
52718;SDS011;38616;42.140;24.760;2023-01-10T01:29:45;81.97;;;32.03;;
52718;SDS011;38616;42.140;24.760;2023-01-10T01:32:11;70.22;;;30.98;;
52718;SDS011;38616;42.140;24.760;2023-01-10T01:34:36;80.55;;;30.30;;
52718;SDS011;38616;42.140;24.760;2023-01-10T01:37:02;79.78;;;30.88;;
52718;SDS011;38616;42.140;24.760;2023-01-10T01:39:27;77.05;;;29.83;;
52718;SDS011;38616;42.140;24.760;2023-01-10T01:41:53;71.25;;;30.15;;
52718;SDS011;38616;42.140;24.760;2023-01-10T01:47:21;72.82;;;28.02;;
52718;SDS011;38616;42.140;24.760;2023-01-10T01:49:45;69.80;;;28.80;;
52718;SDS011;38616;42.140;24.760;2023-01-10T01:52:11;76.38;;;30.30;;
52718;SDS011;38616;42.140;24.760;2023-01-10T01:54:57;75.80;;;30.13;;
52718;SDS011;38616;42.140;24.760;2023-01-10T01:57:23;67.20;;;29.25;;
52718;SDS011;38616;42.140;24.760;2023-01-10T01:59:52;87.40;;;32.47;;
52718;SDS011;38616;42.140;24.760;2023-01-10T02:02:25;85.10;;;32.77;;
52718;SDS011;38616;42.140;24.760;2023-01-10T02:05:04;76.78;;;30.20;;
52718;SDS011;38616;42.140;24.760;2023-01-10T02:07:33;84.53;;;30.30;;
52718;SDS011;38616;42.140;24.760;2023-01-10T02:10:09;70.70;;;29.05;;
52718;SDS011;38616;42.140;24.760;2023-01-10T02:12:39;71.65;;;30.45;;
52718;SDS011;38616;42.140;24.760;2023-01-10T02:15:05;84.00;;;30.92;;
52718;SDS011;38616;42.140;24.760;2023-01-10T02:17:31;81.22;;;32.15;;
52718;SDS011;38616;42.140;24.760;2023-01-10T02:20:00;81.72;;;29.25;;
52718;SDS011;38616;42.140;24.760;2023-01-10T02:23:04;78.25;;;31.23;;
52718;SDS011;38616;42.140;24.760;2023-01-10T02:34:20;80.95;;;33.10;;
52718;SDS011;38616;42.140;24.760;2023-01-10T02:36:49;76.45;;;31.67;;
52718;SDS011;38616;42.140;24.760;2023-01-10T02:47:20;90.00;;;33.78;;
52718;SDS011;38616;42.140;24.760;2023-01-10T02:49:47;82.15;;;34.30;;
52718;SDS011;38616;42.140;24.760;2023-01-10T02:52:31;81.80;;;35.88;;
52718;SDS011;38616;42.140;24.760;2023-01-10T02:54:57;81.80;;;35.17;;
52718;SDS011;38616;42.140;24.760;2023-01-10T03:00:08;90.07;;;35.90;;
52718;SDS011;38616;42.140;24.760;2023-01-10T03:11:39;99.72;;;36.45;;
52718;SDS011;38616;42.140;24.760;2023-01-10T03:14:18;103.88;;;37.90;;
52718;SDS011;38616;42.140;24.760;2023-01-10T03:16:49;95.68;;;35.30;;
52718;SDS011;38616;42.140;24.760;2023-01-10T03:19:20;106.10;;;38.33;;
52718;SDS011;38616;42.140;24.760;2023-01-10T03:21:46;101.18;;;38.33;;
52718;SDS011;38616;42.140;24.760;2023-01-10T03:24:18;94.78;;;35.78;;
52718;SDS011;38616;42.140;24.760;2023-01-10T03:29:36;96.45;;;35.60;;
52718;SDS011;38616;42.140;24.760;2023-01-10T03:32:06;98.28;;;38.95;;
52718;SDS011;38616;42.140;24.760;2023-01-10T03:34:34;108.50;;;37.53;;
52718;SDS011;38616;42.140;24.760;2023-01-10T03:37:03;99.93;;;36.65;;
52718;SDS011;38616;42.140;24.760;2023-01-10T03:42:25;102.65;;;38.83;;
52718;SDS011;38616;42.140;24.760;2023-01-10T03:45:20;120.13;;;40.78;;
52718;SDS011;38616;42.140;24.760;2023-01-10T03:47:52;89.32;;;35.70;;
52718;SDS011;38616;42.140;24.760;2023-01-10T03:50:21;112.93;;;40.17;;
52718;SDS011;38616;42.140;24.760;2023-01-10T03:52:49;101.13;;;36.58;;
52718;SDS011;38616;42.140;24.760;2023-01-10T03:55:17;108.40;;;38.58;;
52718;SDS011;38616;42.140;24.760;2023-01-10T03:57:45;107.35;;;39.70;;
52718;SDS011;38616;42.140;24.760;2023-01-10T04:00:11;95.82;;;36.38;;
52718;SDS011;38616;42.140;24.760;2023-01-10T04:02:38;94.72;;;34.47;;
52718;SDS011;38616;42.140;24.760;2023-01-10T04:05:03;95.53;;;36.33;;
52718;SDS011;38616;42.140;24.760;2023-01-10T04:07:29;81.45;;;34.17;;
52718;SDS011;38616;42.140;24.760;2023-01-10T04:09:55;88.90;;;37.13;;
52718;SDS011;38616;42.140;24.760;2023-01-10T04:12:20;89.95;;;33.88;;
52718;SDS011;38616;42.140;24.760;2023-01-10T04:14:45;96.57;;;35.00;;
52718;SDS011;38616;42.140;24.760;2023-01-10T04:17:11;97.53;;;37.88;;
52718;SDS011;38616;42.140;24.760;2023-01-10T04:19:38;101.90;;;36.90;;
52718;SDS011;38616;42.140;24.760;2023-01-10T04:22:03;109.70;;;37.05;;
52718;SDS011;38616;42.140;24.760;2023-01-10T04:24:32;78.45;;;33.40;;
52718;SDS011;38616;42.140;24.760;2023-01-10T04:26:58;93.55;;;35.50;;
52718;SDS011;38616;42.140;24.760;2023-01-10T04:29:23;103.93;;;34.83;;
52718;SDS011;38616;42.140;24.760;2023-01-10T04:31:49;89.03;;;34.53;;
52718;SDS011;38616;42.140;24.760;2023-01-10T04:34:14;79.88;;;34.17;;
52718;SDS011;38616;42.140;24.760;2023-01-10T04:36:40;84.75;;;33.83;;
52718;SDS011;38616;42.140;24.760;2023-01-10T04:39:06;80.60;;;32.60;;
52718;SDS011;38616;42.140;24.760;2023-01-10T04:41:32;85.93;;;32.95;;
52718;SDS011;38616;42.140;24.760;2023-01-10T04:43:58;76.55;;;31.30;;
52718;SDS011;38616;42.140;24.760;2023-01-10T04:46:24;82.82;;;31.98;;
52718;SDS011;38616;42.140;24.760;2023-01-10T04:48:50;82.88;;;32.97;;
52718;SDS011;38616;42.140;24.760;2023-01-10T04:51:16;84.40;;;32.65;;
52718;SDS011;38616;42.140;24.760;2023-01-10T04:53:42;89.50;;;35.13;;
52718;SDS011;38616;42.140;24.760;2023-01-10T04:56:08;97.85;;;37.78;;
52718;SDS011;38616;42.140;24.760;2023-01-10T04:58:39;85.82;;;33.88;;
52718;SDS011;38616;42.140;24.760;2023-01-10T05:01:08;106.68;;;38.40;;
52718;SDS011;38616;42.140;24.760;2023-01-10T05:03:35;107.78;;;39.33;;
52718;SDS011;38616;42.140;24.760;2023-01-10T05:06:00;106.53;;;37.83;;
52718;SDS011;38616;42.140;24.760;2023-01-10T05:08:26;106.57;;;41.20;;
52718;SDS011;38616;42.140;24.760;2023-01-10T05:10:51;112.38;;;40.08;;
52718;SDS011;38616;42.140;24.760;2023-01-10T05:13:17;103.60;;;37.25;;
52718;SDS011;38616;42.140;24.760;2023-01-10T05:15:42;91.70;;;37.75;;
52718;SDS011;38616;42.140;24.760;2023-01-10T05:18:07;99.63;;;40.92;;
52718;SDS011;38616;42.140;24.760;2023-01-10T05:20:33;98.90;;;41.00;;
52718;SDS011;38616;42.140;24.760;2023-01-10T05:22:58;114.22;;;39.58;;
52718;SDS011;38616;42.140;24.760;2023-01-10T05:25:24;101.90;;;37.17;;
52718;SDS011;38616;42.140;24.760;2023-01-10T05:27:49;98.78;;;40.28;;
52718;SDS011;38616;42.140;24.760;2023-01-10T05:30:15;96.55;;;38.20;;
52718;SDS011;38616;42.140;24.760;2023-01-10T05:32:40;103.60;;;38.15;;
52718;SDS011;38616;42.140;24.760;2023-01-10T05:35:06;114.85;;;38.25;;
52718;SDS011;38616;42.140;24.760;2023-01-10T05:37:32;96.78;;;37.30;;
52718;SDS011;38616;42.140;24.760;2023-01-10T05:39:57;97.20;;;37.03;;
52718;SDS011;38616;42.140;24.760;2023-01-10T05:42:22;101.68;;;38.08;;
52718;SDS011;38616;42.140;24.760;2023-01-10T05:44:48;109.70;;;40.40;;
52718;SDS011;38616;42.140;24.760;2023-01-10T05:47:13;112.05;;;40.28;;
52718;SDS011;38616;42.140;24.760;2023-01-10T05:49:39;110.63;;;40.33;;
52718;SDS011;38616;42.140;24.760;2023-01-10T05:52:04;115.82;;;41.53;;
52718;SDS011;38616;42.140;24.760;2023-01-10T05:54:29;113.47;;;40.60;;
52718;SDS011;38616;42.140;24.760;2023-01-10T05:56:55;107.93;;;39.92;;
52718;SDS011;38616;42.140;24.760;2023-01-10T05:59:20;112.53;;;38.85;;
52718;SDS011;38616;42.140;24.760;2023-01-10T06:01:46;124.72;;;43.70;;
52718;SDS011;38616;42.140;24.760;2023-01-10T06:04:11;117.80;;;41.92;;
52718;SDS011;38616;42.140;24.760;2023-01-10T06:06:37;105.57;;;42.58;;
52718;SDS011;38616;42.140;24.760;2023-01-10T06:09:02;113.20;;;41.40;;
52718;SDS011;38616;42.140;24.760;2023-01-10T06:11:28;105.32;;;41.33;;
52718;SDS011;38616;42.140;24.760;2023-01-10T06:13:57;114.63;;;42.33;;
52718;SDS011;38616;42.140;24.760;2023-01-10T06:16:23;120.72;;;42.67;;
52718;SDS011;38616;42.140;24.760;2023-01-10T06:18:49;119.75;;;41.80;;
52718;SDS011;38616;42.140;24.760;2023-01-10T06:21:14;113.07;;;41.10;;
52718;SDS011;38616;42.140;24.760;2023-01-10T06:23:40;116.35;;;41.88;;
52718;SDS011;38616;42.140;24.760;2023-01-10T06:26:06;127.38;;;43.22;;
52718;SDS011;38616;42.140;24.760;2023-01-10T06:28:31;129.77;;;39.95;;
52718;SDS011;38616;42.140;24.760;2023-01-10T06:30:56;117.55;;;41.72;;
52718;SDS011;38616;42.140;24.760;2023-01-10T06:33:22;127.57;;;42.75;;
52718;SDS011;38616;42.140;24.760;2023-01-10T06:35:47;116.47;;;41.45;;
52718;SDS011;38616;42.140;24.760;2023-01-10T06:38:13;124.22;;;42.47;;
52718;SDS011;38616;42.140;24.760;2023-01-10T06:40:39;115.57;;;42.25;;
52718;SDS011;38616;42.140;24.760;2023-01-10T06:43:04;125.25;;;41.65;;
52718;SDS011;38616;42.140;24.760;2023-01-10T06:45:30;133.05;;;42.47;;
52718;SDS011;38616;42.140;24.760;2023-01-10T06:47:56;136.40;;;43.15;;
52718;SDS011;38616;42.140;24.760;2023-01-10T06:50:21;133.55;;;45.92;;
52718;SDS011;38616;42.140;24.760;2023-01-10T06:52:57;147.52;;;49.10;;
52718;SDS011;38616;42.140;24.760;2023-01-10T06:55:23;148.50;;;53.63;;
52718;SDS011;38616;42.140;24.760;2023-01-10T06:58:00;157.98;;;49.60;;
52718;SDS011;38616;42.140;24.760;2023-01-10T07:00:27;135.50;;;44.65;;
52718;SDS011;38616;42.140;24.760;2023-01-10T07:02:54;130.45;;;46.28;;
52718;SDS011;38616;42.140;24.760;2023-01-10T07:05:22;156.30;;;50.50;;
52718;SDS011;38616;42.140;24.760;2023-01-10T07:07:48;142.02;;;44.85;;
52718;SDS011;38616;42.140;24.760;2023-01-10T07:10:13;137.60;;;46.30;;
52718;SDS011;38616;42.140;24.760;2023-01-10T07:12:39;139.30;;;46.00;;
52718;SDS011;38616;42.140;24.760;2023-01-10T07:15:05;135.95;;;49.85;;
52718;SDS011;38616;42.140;24.760;2023-01-10T07:17:30;136.10;;;45.28;;
52718;SDS011;38616;42.140;24.760;2023-01-10T07:19:56;149.80;;;46.67;;
52718;SDS011;38616;42.140;24.760;2023-01-10T07:22:21;164.13;;;45.17;;
52718;SDS011;38616;42.140;24.760;2023-01-10T07:24:47;151.13;;;48.28;;
52718;SDS011;38616;42.140;24.760;2023-01-10T07:27:12;147.52;;;46.78;;
52718;SDS011;38616;42.140;24.760;2023-01-10T07:29:38;152.90;;;45.92;;
52718;SDS011;38616;42.140;24.760;2023-01-10T07:32:04;150.00;;;48.67;;
52718;SDS011;38616;42.140;24.760;2023-01-10T07:34:30;162.55;;;49.22;;
52718;SDS011;38616;42.140;24.760;2023-01-10T07:36:55;132.77;;;43.42;;
52718;SDS011;38616;42.140;24.760;2023-01-10T07:39:20;142.35;;;43.45;;
52718;SDS011;38616;42.140;24.760;2023-01-10T07:41:46;133.63;;;43.10;;
52718;SDS011;38616;42.140;24.760;2023-01-10T07:44:12;130.40;;;42.30;;
52718;SDS011;38616;42.140;24.760;2023-01-10T07:46:38;147.77;;;44.35;;
52718;SDS011;38616;42.140;24.760;2023-01-10T07:49:03;133.35;;;40.35;;
52718;SDS011;38616;42.140;24.760;2023-01-10T07:51:29;135.55;;;43.78;;
52718;SDS011;38616;42.140;24.760;2023-01-10T07:53:55;146.40;;;46.85;;
52718;SDS011;38616;42.140;24.760;2023-01-10T07:56:20;145.50;;;47.28;;
52718;SDS011;38616;42.140;24.760;2023-01-10T07:58:46;140.98;;;49.50;;
52718;SDS011;38616;42.140;24.760;2023-01-10T08:01:11;125.13;;;45.38;;
52718;SDS011;38616;42.140;24.760;2023-01-10T08:03:37;142.85;;;48.85;;
52718;SDS011;38616;42.140;24.760;2023-01-10T08:06:03;144.25;;;44.72;;
52718;SDS011;38616;42.140;24.760;2023-01-10T08:08:31;126.55;;;41.72;;
52718;SDS011;38616;42.140;24.760;2023-01-10T08:10:57;122.63;;;38.72;;
52718;SDS011;38616;42.140;24.760;2023-01-10T08:13:29;138.57;;;45.20;;
52718;SDS011;38616;42.140;24.760;2023-01-10T08:15:56;131.52;;;46.15;;
52718;SDS011;38616;42.140;24.760;2023-01-10T08:18:22;141.77;;;43.15;;
52718;SDS011;38616;42.140;24.760;2023-01-10T08:20:49;136.32;;;46.50;;
52718;SDS011;38616;42.140;24.760;2023-01-10T08:23:16;113.57;;;35.22;;
52718;SDS011;38616;42.140;24.760;2023-01-10T08:25:42;136.88;;;44.95;;
52718;SDS011;38616;42.140;24.760;2023-01-10T08:28:07;139.77;;;45.75;;
52718;SDS011;38616;42.140;24.760;2023-01-10T08:30:33;146.32;;;45.05;;
52718;SDS011;38616;42.140;24.760;2023-01-10T08:33:00;140.27;;;45.08;;
52718;SDS011;38616;42.140;24.760;2023-01-10T08:35:27;133.75;;;45.33;;
52718;SDS011;38616;42.140;24.760;2023-01-10T08:37:53;149.95;;;46.80;;
52718;SDS011;38616;42.140;24.760;2023-01-10T08:40:22;133.00;;;46.35;;
52718;SDS011;38616;42.140;24.760;2023-01-10T08:42:47;136.98;;;48.75;;
52718;SDS011;38616;42.140;24.760;2023-01-10T08:45:13;138.18;;;46.58;;
52718;SDS011;38616;42.140;24.760;2023-01-10T08:47:38;123.38;;;45.58;;
52718;SDS011;38616;42.140;24.760;2023-01-10T08:50:04;132.40;;;44.58;;
52718;SDS011;38616;42.140;24.760;2023-01-10T08:52:30;130.32;;;44.78;;
52718;SDS011;38616;42.140;24.760;2023-01-10T08:54:55;136.75;;;48.08;;
52718;SDS011;38616;42.140;24.760;2023-01-10T08:57:20;118.97;;;44.55;;
52718;SDS011;38616;42.140;24.760;2023-01-10T08:59:46;106.47;;;38.72;;
52718;SDS011;38616;42.140;24.760;2023-01-10T09:02:12;108.40;;;39.20;;
52718;SDS011;38616;42.140;24.760;2023-01-10T09:04:38;110.40;;;35.42;;
52718;SDS011;38616;42.140;24.760;2023-01-10T09:07:03;111.32;;;36.53;;
52718;SDS011;38616;42.140;24.760;2023-01-10T09:09:29;107.82;;;36.50;;
52718;SDS011;38616;42.140;24.760;2023-01-10T09:11:54;83.30;;;31.23;;
52718;SDS011;38616;42.140;24.760;2023-01-10T09:14:21;86.57;;;30.95;;
52718;SDS011;38616;42.140;24.760;2023-01-10T09:16:46;86.25;;;31.65;;
52718;SDS011;38616;42.140;24.760;2023-01-10T09:19:15;80.30;;;29.92;;
52718;SDS011;38616;42.140;24.760;2023-01-10T09:21:41;83.63;;;29.85;;
52718;SDS011;38616;42.140;24.760;2023-01-10T09:24:06;82.32;;;30.65;;
52718;SDS011;38616;42.140;24.760;2023-01-10T09:26:32;79.90;;;31.67;;
52718;SDS011;38616;42.140;24.760;2023-01-10T09:28:57;83.32;;;31.80;;
52718;SDS011;38616;42.140;24.760;2023-01-10T09:31:23;85.68;;;32.40;;
52718;SDS011;38616;42.140;24.760;2023-01-10T09:33:48;71.95;;;29.08;;
52718;SDS011;38616;42.140;24.760;2023-01-10T09:36:14;86.88;;;32.83;;
52718;SDS011;38616;42.140;24.760;2023-01-10T09:38:39;68.85;;;27.63;;
52718;SDS011;38616;42.140;24.760;2023-01-10T09:41:27;71.47;;;31.77;;
52718;SDS011;38616;42.140;24.760;2023-01-10T09:52:21;83.57;;;30.77;;
52718;SDS011;38616;42.140;24.760;2023-01-10T09:54:49;79.38;;;30.70;;
52718;SDS011;38616;42.140;24.760;2023-01-10T09:57:19;80.53;;;30.08;;
52718;SDS011;38616;42.140;24.760;2023-01-10T10:07:32;82.03;;;29.85;;
52718;SDS011;38616;42.140;24.760;2023-01-10T10:09:58;81.50;;;28.48;;
52718;SDS011;38616;42.140;24.760;2023-01-10T10:20:45;68.07;;;29.10;;
52718;SDS011;38616;42.140;24.760;2023-01-10T10:23:26;72.32;;;29.55;;
52718;SDS011;38616;42.140;24.760;2023-01-10T10:26:18;75.73;;;30.27;;
52718;SDS011;38616;42.140;24.760;2023-01-10T10:40:18;81.70;;;31.42;;
52718;SDS011;38616;42.140;24.760;2023-01-10T10:42:47;82.68;;;30.42;;
52718;SDS011;38616;42.140;24.760;2023-01-10T10:45:23;81.32;;;32.00;;
52718;SDS011;38616;42.140;24.760;2023-01-10T10:48:15;85.72;;;33.42;;
52718;SDS011;38616;42.140;24.760;2023-01-10T10:50:53;87.70;;;32.53;;
52718;SDS011;38616;42.140;24.760;2023-01-10T10:53:26;77.65;;;29.67;;
52718;SDS011;38616;42.140;24.760;2023-01-10T10:55:52;94.45;;;34.88;;
52718;SDS011;38616;42.140;24.760;2023-01-10T10:58:18;88.50;;;31.50;;
52718;SDS011;38616;42.140;24.760;2023-01-10T11:00:44;73.00;;;32.22;;
52718;SDS011;38616;42.140;24.760;2023-01-10T11:05:49;86.30;;;29.48;;
52718;SDS011;38616;42.140;24.760;2023-01-10T11:08:16;88.30;;;31.33;;
52718;SDS011;38616;42.140;24.760;2023-01-10T11:10:49;91.75;;;33.78;;
52718;SDS011;38616;42.140;24.760;2023-01-10T11:15:59;79.75;;;33.40;;
52718;SDS011;38616;42.140;24.760;2023-01-10T11:18:27;94.93;;;34.50;;
52718;SDS011;38616;42.140;24.760;2023-01-10T11:20:58;89.07;;;36.42;;
52718;SDS011;38616;42.140;24.760;2023-01-10T11:23:32;98.43;;;38.03;;
52718;SDS011;38616;42.140;24.760;2023-01-10T11:25:59;92.18;;;36.72;;
52718;SDS011;38616;42.140;24.760;2023-01-10T11:28:26;99.40;;;38.03;;
52718;SDS011;38616;42.140;24.760;2023-01-10T11:30:54;102.57;;;39.25;;
52718;SDS011;38616;42.140;24.760;2023-01-10T11:33:21;108.57;;;43.35;;
52718;SDS011;38616;42.140;24.760;2023-01-10T11:35:55;98.40;;;39.97;;
52718;SDS011;38616;42.140;24.760;2023-01-10T11:38:29;119.30;;;44.28;;
52718;SDS011;38616;42.140;24.760;2023-01-10T11:40:59;116.55;;;46.40;;
52718;SDS011;38616;42.140;24.760;2023-01-10T11:43:39;118.93;;;47.33;;
52718;SDS011;38616;42.140;24.760;2023-01-10T11:46:11;112.27;;;44.03;;
52718;SDS011;38616;42.140;24.760;2023-01-10T11:51:28;90.00;;;36.30;;
52718;SDS011;38616;42.140;24.760;2023-01-10T11:53:57;89.28;;;36.35;;
52718;SDS011;38616;42.140;24.760;2023-01-10T11:56:29;84.43;;;36.63;;
52718;SDS011;38616;42.140;24.760;2023-01-10T11:58:58;88.85;;;34.35;;
52718;SDS011;38616;42.140;24.760;2023-01-10T12:01:37;88.88;;;36.20;;
52718;SDS011;38616;42.140;24.760;2023-01-10T12:04:14;55.13;;;24.35;;
52718;SDS011;38616;42.140;24.760;2023-01-10T12:06:44;82.80;;;31.73;;
52718;SDS011;38616;42.140;24.760;2023-01-10T12:14:50;73.60;;;28.25;;
52718;SDS011;38616;42.140;24.760;2023-01-10T12:17:33;66.57;;;28.38;;
52718;SDS011;38616;42.140;24.760;2023-01-10T12:20:00;62.08;;;26.55;;
52718;SDS011;38616;42.140;24.760;2023-01-10T12:22:32;68.32;;;26.60;;
52718;SDS011;38616;42.140;24.760;2023-01-10T12:25:02;67.38;;;30.48;;
52718;SDS011;38616;42.140;24.760;2023-01-10T12:27:39;65.30;;;27.55;;
52718;SDS011;38616;42.140;24.760;2023-01-10T12:30:11;52.65;;;22.10;;
52718;SDS011;38616;42.140;24.760;2023-01-10T12:32:58;65.63;;;29.55;;
52718;SDS011;38616;42.140;24.760;2023-01-10T12:35:37;65.32;;;28.38;;
52718;SDS011;38616;42.140;24.760;2023-01-10T12:38:13;78.43;;;31.10;;
52718;SDS011;38616;42.140;24.760;2023-01-10T12:41:20;76.43;;;28.50;;
52718;SDS011;38616;42.140;24.760;2023-01-10T12:44:15;70.10;;;28.30;;
52718;SDS011;38616;42.140;24.760;2023-01-10T12:46:47;67.82;;;28.33;;
52718;SDS011;38616;42.140;24.760;2023-01-10T12:49:20;68.20;;;27.88;;
52718;SDS011;38616;42.140;24.760;2023-01-10T12:51:50;58.78;;;25.58;;
52718;SDS011;38616;42.140;24.760;2023-01-10T12:54:20;60.58;;;25.42;;
52718;SDS011;38616;42.140;24.760;2023-01-10T12:56:47;59.72;;;26.00;;
52718;SDS011;38616;42.140;24.760;2023-01-10T12:59:34;62.80;;;24.38;;
52718;SDS011;38616;42.140;24.760;2023-01-10T13:02:06;61.55;;;26.42;;
52718;SDS011;38616;42.140;24.760;2023-01-10T13:04:38;63.58;;;26.83;;
52718;SDS011;38616;42.140;24.760;2023-01-10T13:07:09;69.07;;;28.30;;
52718;SDS011;38616;42.140;24.760;2023-01-10T13:09:36;60.40;;;29.45;;
52718;SDS011;38616;42.140;24.760;2023-01-10T13:12:05;68.10;;;27.83;;
52718;SDS011;38616;42.140;24.760;2023-01-10T13:14:53;61.00;;;26.90;;
52718;SDS011;38616;42.140;24.760;2023-01-10T13:17:27;60.92;;;26.65;;
52718;SDS011;38616;42.140;24.760;2023-01-10T13:22:54;64.15;;;28.25;;
52718;SDS011;38616;42.140;24.760;2023-01-10T13:28:05;72.55;;;31.35;;
52718;SDS011;38616;42.140;24.760;2023-01-10T13:30:33;75.32;;;32.40;;
52718;SDS011;38616;42.140;24.760;2023-01-10T13:33:23;63.88;;;26.52;;
52718;SDS011;38616;42.140;24.760;2023-01-10T13:35:56;52.90;;;23.67;;
52718;SDS011;38616;42.140;24.760;2023-01-10T13:38:54;57.47;;;23.95;;
52718;SDS011;38616;42.140;24.760;2023-01-10T13:41:21;48.40;;;21.55;;
52718;SDS011;38616;42.140;24.760;2023-01-10T13:44:13;48.92;;;22.65;;
52718;SDS011;38616;42.140;24.760;2023-01-10T13:46:40;46.63;;;22.35;;
52718;SDS011;38616;42.140;24.760;2023-01-10T13:51:36;52.00;;;24.17;;
52718;SDS011;38616;42.140;24.760;2023-01-10T13:56:41;55.03;;;23.45;;
52718;SDS011;38616;42.140;24.760;2023-01-10T14:02:16;48.58;;;21.65;;
52718;SDS011;38616;42.140;24.760;2023-01-10T14:04:59;58.78;;;28.30;;
52718;SDS011;38616;42.140;24.760;2023-01-10T14:07:28;45.08;;;20.95;;
52718;SDS011;38616;42.140;24.760;2023-01-10T14:10:03;46.78;;;24.52;;
52718;SDS011;38616;42.140;24.760;2023-01-10T14:15:06;54.50;;;24.77;;
52718;SDS011;38616;42.140;24.760;2023-01-10T14:17:44;59.70;;;25.65;;
52718;SDS011;38616;42.140;24.760;2023-01-10T14:20:20;50.53;;;23.48;;
52718;SDS011;38616;42.140;24.760;2023-01-10T14:23:02;56.80;;;27.02;;
52718;SDS011;38616;42.140;24.760;2023-01-10T14:25:28;54.10;;;24.80;;
52718;SDS011;38616;42.140;24.760;2023-01-10T14:27:57;61.95;;;25.58;;
52718;SDS011;38616;42.140;24.760;2023-01-10T14:33:14;61.08;;;24.73;;
52718;SDS011;38616;42.140;24.760;2023-01-10T14:35:44;48.92;;;24.52;;
52718;SDS011;38616;42.140;24.760;2023-01-10T14:40:47;57.47;;;21.83;;
52718;SDS011;38616;42.140;24.760;2023-01-10T14:43:16;50.75;;;21.70;;
52718;SDS011;38616;42.140;24.760;2023-01-10T14:53:37;45.13;;;20.80;;
52718;SDS011;38616;42.140;24.760;2023-01-10T14:56:02;46.95;;;20.48;;
52718;SDS011;38616;42.140;24.760;2023-01-10T14:58:27;45.65;;;21.17;;
52718;SDS011;38616;42.140;24.760;2023-01-10T15:00:53;46.53;;;20.08;;
52718;SDS011;38616;42.140;24.760;2023-01-10T15:03:21;42.08;;;19.67;;
52718;SDS011;38616;42.140;24.760;2023-01-10T15:05:49;45.95;;;20.88;;
52718;SDS011;38616;42.140;24.760;2023-01-10T15:10:49;40.50;;;19.27;;
52718;SDS011;38616;42.140;24.760;2023-01-10T15:13:19;38.28;;;18.50;;
52718;SDS011;38616;42.140;24.760;2023-01-10T15:15:47;43.17;;;19.50;;
52718;SDS011;38616;42.140;24.760;2023-01-10T15:21:00;39.10;;;18.35;;
52718;SDS011;38616;42.140;24.760;2023-01-10T15:23:32;35.85;;;18.05;;
52718;SDS011;38616;42.140;24.760;2023-01-10T15:26:03;37.55;;;18.75;;
52718;SDS011;38616;42.140;24.760;2023-01-10T15:28:33;41.97;;;18.15;;
52718;SDS011;38616;42.140;24.760;2023-01-10T15:30:59;38.33;;;18.67;;
52718;SDS011;38616;42.140;24.760;2023-01-10T15:33:27;39.38;;;19.88;;
52718;SDS011;38616;42.140;24.760;2023-01-10T15:38:53;38.95;;;19.17;;
52718;SDS011;38616;42.140;24.760;2023-01-10T15:41:19;36.78;;;18.08;;
52718;SDS011;38616;42.140;24.760;2023-01-10T15:43:47;42.33;;;19.02;;
52718;SDS011;38616;42.140;24.760;2023-01-10T15:46:18;42.92;;;21.25;;
52718;SDS011;38616;42.140;24.760;2023-01-10T15:48:56;43.97;;;22.45;;
52718;SDS011;38616;42.140;24.760;2023-01-10T15:51:29;41.47;;;20.08;;
52718;SDS011;38616;42.140;24.760;2023-01-10T15:53:59;33.63;;;16.15;;
52718;SDS011;38616;42.140;24.760;2023-01-10T15:56:33;49.72;;;24.23;;
52718;SDS011;38616;42.140;24.760;2023-01-10T15:59:02;40.50;;;20.75;;
52718;SDS011;38616;42.140;24.760;2023-01-10T16:01:29;41.28;;;19.02;;
52718;SDS011;38616;42.140;24.760;2023-01-10T16:03:58;37.97;;;19.73;;
52718;SDS011;38616;42.140;24.760;2023-01-10T16:06:33;59.80;;;29.42;;
52718;SDS011;38616;42.140;24.760;2023-01-10T16:09:01;52.00;;;26.13;;
52718;SDS011;38616;42.140;24.760;2023-01-10T16:14:28;46.80;;;22.95;;
52718;SDS011;38616;42.140;24.760;2023-01-10T16:16:54;42.65;;;21.13;;
52718;SDS011;38616;42.140;24.760;2023-01-10T16:19:19;71.50;;;36.90;;
52718;SDS011;38616;42.140;24.760;2023-01-10T16:21:46;80.82;;;44.63;;
52718;SDS011;38616;42.140;24.760;2023-01-10T16:24:19;47.63;;;26.52;;